createdAt,value
2023-04-10T00:00:19.400Z,41.24
2023-04-10T00:02:48.780Z,41.10
2023-04-10T00:05:18.844Z,40.99
2023-04-10T00:07:52.010Z,41.02
2023-04-10T00:10:20.570Z,41.05
2023-04-10T00:12:56.719Z,41.03
2023-04-10T00:15:25.359Z,40.90
2023-04-10T00:18:00.602Z,40.85
2023-04-10T00:20:29.378Z,40.73
2023-04-10T00:23:00.512Z,40.68
2023-04-10T00:25:31.292Z,40.70
2023-04-10T00:28:00.244Z,40.74
2023-04-10T00:30:28.694Z,40.77
2023-04-10T00:33:12.996Z,40.85
2023-04-10T00:35:41.433Z,40.92
2023-04-10T00:38:09.734Z,40.92
2023-04-10T00:40:39.199Z,40.96
2023-04-10T00:43:08.306Z,40.92
2023-04-10T00:45:39.044Z,40.89
2023-04-10T00:48:14.942Z,40.90
2023-04-10T00:50:43.250Z,40.92
2023-04-10T00:53:11.833Z,40.98
2023-04-10T00:55:40.464Z,40.99
2023-04-10T00:58:08.898Z,40.92
2023-04-10T01:00:43.289Z,41.01
2023-04-10T01:03:13.852Z,41.07
2023-04-10T01:05:45.092Z,41.23
2023-04-10T01:08:31.154Z,41.28
2023-04-10T01:11:06.392Z,41.53
2023-04-10T01:13:34.826Z,41.72
2023-04-10T01:16:09.756Z,41.77
2023-04-10T01:18:49.382Z,41.91
2023-04-10T01:21:19.960Z,41.96
2023-04-10T03:31:27.360Z,40.70
2023-04-10T03:40:15.372Z,40.44
2023-04-10T03:46:17.523Z,40.58
2023-04-10T03:49:24.679Z,40.50
2023-04-10T03:52:30.936Z,40.69
2023-04-10T03:55:20.242Z,40.75
2023-04-10T03:57:58.557Z,40.74
2023-04-10T04:04:15.546Z,40.52
2023-04-10T04:10:50.963Z,40.37
2023-04-10T04:22:05.951Z,40.93
2023-04-10T04:25:29.587Z,41.02
2023-04-10T04:55:24.269Z,41.29
2023-04-10T04:58:07.881Z,41.12
2023-04-10T05:00:58.828Z,41.26
2023-04-10T05:03:43.699Z,41.16
2023-04-10T05:06:33.737Z,41.11
2023-04-10T05:09:32.631Z,41.29
2023-04-10T05:12:19.456Z,41.23
2023-04-10T05:15:10.915Z,41.10
2023-04-10T05:17:54.809Z,41.01
2023-04-10T05:20:43.152Z,41.08
2023-04-10T05:23:38.072Z,41.04
2023-04-10T05:26:27.630Z,41.06
2023-04-10T05:29:16.082Z,41.22
2023-04-10T05:32:10.087Z,41.36
2023-04-10T05:35:00.881Z,41.26
2023-04-10T05:37:57.979Z,41.31
2023-04-10T05:40:38.997Z,41.45
2023-04-10T05:43:38.520Z,41.42
2023-04-10T05:46:37.079Z,41.37
2023-04-10T05:49:16.321Z,41.30
2023-04-10T05:52:19.415Z,41.37
2023-04-10T05:54:48.716Z,41.47
2023-04-10T05:57:34.080Z,41.60
2023-04-10T06:00:26.824Z,41.72
2023-04-10T06:03:15.944Z,41.94
2023-04-10T06:05:52.059Z,42.05
2023-04-10T06:08:25.978Z,42.01
2023-04-10T06:10:58.479Z,41.98
2023-04-10T06:13:32.968Z,41.94
2023-04-10T06:16:11.646Z,41.94
2023-04-10T06:18:41.824Z,41.87
2023-04-10T06:21:14.380Z,41.82
2023-04-10T06:23:46.913Z,41.89
2023-04-10T06:26:17.237Z,41.92
2023-04-10T06:28:46.817Z,41.92
2023-04-10T06:31:19.083Z,41.88
2023-04-10T06:33:50.451Z,41.92
2023-04-10T06:36:21.822Z,41.93
2023-04-10T06:39:00.681Z,41.96
2023-04-10T06:41:29.929Z,41.92
2023-04-10T06:44:12.421Z,41.99
2023-04-10T06:46:41.572Z,41.92
2023-04-10T06:49:11.102Z,41.97
2023-04-10T06:51:40.898Z,42.04
2023-04-10T06:54:10.224Z,42.07
2023-04-10T06:56:40.282Z,42.07
2023-04-10T06:59:09.315Z,42.07
2023-04-10T07:01:39.014Z,42.13
2023-04-10T07:04:08.946Z,42.08
2023-04-10T07:06:40.299Z,41.95
2023-04-10T07:09:10.923Z,41.87
2023-04-10T07:11:41.195Z,41.76
2023-04-10T07:14:11.708Z,41.52
2023-04-10T07:16:42.716Z,41.51
2023-04-10T07:19:15.206Z,41.62
2023-04-10T07:21:44.839Z,41.60
2023-04-10T07:24:18.515Z,41.67
2023-04-10T07:26:49.951Z,41.59
2023-04-10T07:29:19.669Z,41.17
2023-04-10T07:31:53.354Z,41.16
2023-04-10T07:34:23.375Z,41.25
2023-04-10T07:36:53.303Z,41.21
2023-04-10T07:39:23.653Z,41.23
2023-04-10T07:41:56.244Z,41.27
2023-04-10T07:44:32.153Z,41.10
2023-04-10T07:47:01.833Z,41.00
2023-04-10T07:49:31.803Z,41.14
2023-04-10T07:52:05.195Z,41.36
2023-04-10T07:54:37.762Z,41.37
2023-04-10T07:57:07.123Z,41.32
2023-04-10T07:59:36.850Z,41.32
2023-04-10T08:02:06.702Z,41.33
2023-04-10T08:04:36.856Z,41.43
2023-04-10T08:07:07.168Z,41.34
2023-04-10T08:09:38.076Z,41.43
2023-04-10T08:12:09.768Z,41.60
2023-04-10T08:14:39.740Z,41.77
2023-04-10T08:17:15.978Z,41.87
2023-04-10T08:19:48.136Z,41.99
2023-04-10T08:22:19.445Z,42.09
2023-04-10T08:24:53.941Z,42.13
2023-04-10T08:27:44.010Z,42.27
2023-04-10T08:30:13.721Z,42.41
2023-04-10T08:32:47.878Z,42.46
2023-04-10T08:35:23.032Z,42.50
2023-04-10T08:38:07.766Z,42.66
2023-04-10T08:40:41.329Z,42.91
2023-04-10T08:43:13.138Z,43.05
2023-04-10T08:45:46.557Z,43.19
2023-04-10T08:48:16.546Z,43.28
2023-04-10T08:50:46.455Z,43.33
2023-04-10T08:53:17.270Z,43.39
2023-04-10T08:55:54.176Z,43.36
2023-04-10T08:58:27.113Z,43.34
2023-04-10T09:01:02.034Z,43.25
2023-04-10T09:03:32.720Z,43.06
2023-04-10T09:06:03.940Z,42.93
2023-04-10T09:08:33.570Z,42.84
2023-04-10T09:11:05.854Z,42.84
2023-04-10T09:13:39.766Z,42.92
2023-04-10T09:16:13.977Z,43.04
2023-04-10T09:18:50.056Z,43.30
2023-04-10T09:21:21.421Z,43.33
2023-04-10T09:23:55.623Z,43.54
2023-04-10T09:26:25.223Z,43.60
2023-04-10T09:29:01.972Z,43.62
2023-04-10T09:31:34.805Z,43.79
2023-04-10T09:34:08.268Z,43.94
2023-04-10T09:36:38.360Z,43.97
2023-04-10T09:39:10.020Z,43.97
2023-04-10T09:41:53.933Z,43.89
2023-04-10T09:44:35.523Z,43.92
2023-04-10T09:47:14.709Z,44.03
2023-04-10T09:49:51.005Z,44.11
2023-04-10T09:52:31.692Z,44.15
2023-04-10T09:55:03.305Z,44.24
2023-04-10T09:57:34.080Z,44.00
2023-04-10T10:00:11.258Z,44.08
2023-04-10T10:02:42.798Z,44.07
2023-04-10T10:05:12.259Z,44.00
2023-04-10T10:07:43.033Z,44.22
2023-04-10T10:10:12.515Z,44.33
2023-04-10T10:12:46.502Z,44.32
2023-04-10T10:15:22.467Z,44.36
2023-04-10T10:18:09.058Z,44.43
2023-04-10T10:20:38.694Z,44.56
2023-04-10T10:23:08.167Z,44.70
2023-04-10T10:25:39.693Z,44.85
2023-04-10T10:28:09.218Z,44.91
2023-04-10T10:30:45.373Z,44.89
2023-04-10T10:33:15.647Z,44.87
2023-04-10T10:35:44.560Z,44.85
2023-04-10T10:38:13.887Z,44.82
2023-04-10T10:40:50.639Z,44.92
2023-04-10T10:43:22.797Z,45.00
2023-04-10T10:45:54.916Z,45.06
2023-04-10T10:48:25.623Z,45.03
2023-04-10T10:51:00.368Z,45.10
2023-04-10T10:53:47.042Z,45.35
2023-04-10T10:56:18.620Z,45.52
2023-04-10T10:58:52.453Z,45.50
2023-04-10T11:01:23.170Z,45.48
2023-04-10T11:03:56.615Z,45.31
2023-04-10T11:06:55.291Z,45.25
2023-04-10T11:09:51.326Z,45.00
2023-04-10T11:12:23.035Z,44.93
2023-04-10T11:14:59.678Z,44.99
2023-04-10T11:17:50.404Z,45.17
2023-04-10T11:20:30.301Z,45.35
2023-04-10T11:23:14.887Z,45.38
2023-04-10T11:25:54.588Z,45.40
2023-04-10T11:28:34.140Z,45.49
2023-04-10T11:31:19.979Z,45.54
2023-04-10T11:33:49.960Z,45.61
2023-04-10T11:36:21.511Z,45.61
2023-04-10T11:39:10.785Z,45.58
2023-04-10T11:41:40.457Z,45.56
2023-04-10T11:44:13.456Z,45.70
2023-04-10T11:46:43.120Z,45.89
2023-04-10T11:49:11.900Z,46.07
2023-04-10T11:51:41.402Z,45.98
2023-04-10T11:54:11.432Z,46.07
2023-04-10T11:56:42.319Z,46.22
2023-04-10T11:59:15.631Z,46.33
2023-04-10T12:01:47.384Z,46.47
2023-04-10T12:04:18.435Z,46.59
2023-04-10T12:06:49.528Z,46.73
2023-04-10T12:09:19.802Z,46.96
2023-04-10T12:11:57.486Z,47.26
2023-04-10T12:14:35.527Z,47.46
2023-04-10T12:17:06.233Z,47.67
2023-04-10T12:19:53.552Z,47.77
2023-04-10T12:22:22.450Z,47.81
2023-04-10T12:24:53.770Z,47.69
2023-04-10T12:27:29.168Z,47.50
2023-04-10T12:29:58.761Z,47.30
2023-04-10T12:32:28.859Z,47.02
2023-04-10T12:34:58.692Z,46.71
2023-04-10T12:37:49.225Z,46.58
2023-04-10T12:40:18.730Z,46.58
2023-04-10T12:42:48.305Z,46.36
2023-04-10T12:45:17.471Z,46.25
2023-04-10T12:47:47.624Z,46.26
2023-04-10T12:50:20.340Z,46.25
2023-04-10T12:53:03.405Z,46.45
2023-04-10T12:55:34.217Z,46.60
2023-04-10T12:58:18.400Z,46.73
2023-04-10T13:00:47.940Z,46.75
2023-04-10T13:03:17.576Z,46.84
2023-04-10T13:05:53.028Z,46.86
2023-04-10T13:08:22.957Z,46.51
2023-04-10T13:10:55.888Z,46.15
2023-04-10T13:13:26.439Z,45.89
2023-04-10T13:15:56.505Z,45.53
2023-04-10T13:18:30.122Z,45.45
2023-04-10T13:20:59.477Z,45.33
2023-04-10T13:23:30.266Z,45.09
2023-04-10T13:25:59.955Z,44.79
2023-04-10T13:28:28.777Z,44.60
2023-04-10T13:30:59.517Z,44.59
2023-04-10T13:33:28.698Z,44.73
2023-04-10T13:35:58.385Z,44.75
2023-04-10T13:38:28.204Z,44.77
2023-04-10T13:40:57.956Z,44.76
2023-04-10T13:43:29.088Z,44.77
2023-04-10T13:45:58.500Z,44.68
2023-04-10T13:48:37.294Z,44.55
2023-04-10T13:51:16.452Z,44.79
2023-04-10T13:53:50.776Z,45.05
2023-04-10T13:56:20.160Z,45.18
2023-04-10T13:58:54.005Z,45.28
2023-04-10T14:01:23.735Z,45.53
2023-04-10T14:03:53.878Z,45.85
2023-04-10T14:06:24.114Z,46.27
2023-04-10T14:08:54.111Z,46.58
2023-04-10T14:11:23.697Z,46.57
2023-04-10T14:13:56.599Z,46.52
2023-04-10T14:16:30.545Z,46.71
2023-04-10T14:18:59.801Z,46.84
2023-04-10T14:21:35.158Z,47.08
2023-04-10T14:24:04.076Z,47.25
2023-04-10T14:26:33.207Z,47.41
2023-04-10T14:29:02.645Z,47.52
2023-04-10T14:31:31.755Z,47.66
2023-04-10T14:34:00.791Z,47.89
2023-04-10T14:36:30.562Z,48.02
2023-04-10T14:39:00.142Z,48.06
2023-04-10T14:41:30.475Z,48.04
2023-04-10T14:43:59.833Z,48.05
2023-04-10T14:46:28.915Z,48.34
2023-04-10T14:48:57.637Z,48.66
2023-04-10T14:51:26.915Z,48.85
2023-04-10T14:53:56.374Z,48.94
2023-04-10T14:56:28.148Z,49.04
2023-04-10T14:58:58.519Z,49.08
2023-04-10T15:01:27.548Z,49.17
2023-04-10T15:03:56.963Z,49.60
2023-04-10T15:06:28.518Z,49.93
2023-04-10T15:08:57.492Z,50.14
2023-04-10T15:11:33.236Z,50.31
2023-04-10T15:14:02.818Z,50.57
2023-04-10T15:16:31.944Z,50.88
2023-04-10T15:19:04.989Z,51.15
2023-04-10T15:21:34.713Z,51.30
2023-04-10T15:24:03.543Z,51.54
2023-04-10T15:26:42.335Z,51.87
2023-04-10T15:29:11.487Z,51.86
2023-04-10T15:31:40.601Z,51.88
2023-04-10T15:34:10.143Z,51.99
2023-04-10T15:36:38.997Z,51.96
2023-04-10T15:39:08.200Z,51.63
2023-04-10T15:41:38.501Z,51.59
2023-04-10T15:44:07.497Z,51.73
2023-04-10T15:46:40.429Z,51.77
2023-04-10T15:49:10.953Z,51.75
2023-04-10T15:51:41.275Z,51.61
2023-04-10T15:54:11.685Z,51.34
2023-04-10T15:56:42.916Z,51.25
2023-04-10T15:59:12.687Z,51.05
2023-04-10T16:01:41.906Z,50.91
2023-04-10T16:04:13.249Z,50.72
2023-04-10T16:06:44.360Z,50.57
2023-04-10T16:09:24.666Z,50.32
2023-04-10T16:11:58.966Z,50.00
2023-04-10T16:14:29.566Z,49.76
2023-04-10T16:17:01.505Z,49.68
2023-04-10T16:19:39.338Z,49.45
2023-04-10T16:22:10.478Z,49.28
2023-04-10T16:24:39.303Z,49.04
2023-04-10T16:27:11.040Z,48.65
2023-04-10T16:29:40.653Z,48.23
2023-04-10T16:32:12.651Z,47.97
2023-04-10T16:34:41.936Z,47.73
2023-04-10T16:37:10.856Z,47.37
2023-04-10T16:39:40.805Z,47.11
2023-04-10T16:42:09.665Z,46.83
2023-04-10T16:44:40.064Z,46.34
2023-04-10T16:47:10.222Z,45.92
2023-04-10T16:49:46.078Z,45.86
2023-04-10T16:52:16.635Z,45.81
2023-04-10T16:54:49.024Z,45.67
2023-04-10T16:57:18.619Z,45.53
2023-04-10T16:59:47.696Z,45.45
2023-04-10T17:02:18.139Z,45.26
2023-04-10T17:04:48.266Z,45.08
2023-04-10T17:07:20.858Z,44.98
2023-04-10T17:09:51.616Z,45.15
2023-04-10T17:12:23.863Z,45.12
2023-04-10T17:14:54.460Z,45.03
2023-04-10T17:17:23.545Z,45.11
2023-04-10T17:19:53.079Z,45.16
2023-04-10T17:22:41.534Z,45.19
2023-04-10T17:25:11.558Z,45.15
2023-04-10T17:27:42.061Z,45.02
2023-04-10T17:30:17.083Z,44.91
2023-04-10T17:32:49.306Z,44.76
2023-04-10T17:35:19.691Z,44.72
2023-04-10T17:37:49.688Z,44.65
2023-04-10T17:40:19.207Z,44.59
2023-04-10T17:42:52.761Z,44.40
2023-04-10T17:45:23.708Z,44.27
2023-04-10T17:47:56.687Z,44.29
2023-04-10T17:50:29.117Z,44.29
2023-04-10T17:52:58.197Z,44.32
2023-04-10T17:55:27.229Z,44.35
2023-04-10T17:57:59.972Z,44.50
2023-04-10T18:00:31.933Z,44.48
2023-04-10T18:03:03.078Z,44.37
2023-04-10T18:05:32.567Z,44.33
2023-04-10T18:08:02.391Z,44.39
2023-04-10T18:10:32.673Z,44.30
2023-04-10T18:13:02.728Z,44.20
2023-04-10T18:15:32.399Z,44.16
2023-04-10T18:18:03.259Z,44.12
2023-04-10T18:20:31.970Z,43.96
2023-04-10T18:23:02.059Z,43.71
2023-04-10T18:25:33.378Z,43.54
2023-04-10T18:30:55.770Z,43.27
2023-04-10T18:33:25.937Z,42.81
2023-04-10T18:35:59.650Z,42.60
2023-04-10T18:38:29.637Z,42.46
2023-04-10T18:41:01.364Z,42.40
2023-04-10T18:43:32.941Z,42.17
2023-04-10T18:46:11.512Z,42.03
2023-04-10T18:48:51.319Z,41.97
2023-04-10T18:51:22.361Z,42.13
2023-04-10T18:53:52.792Z,42.21
2023-04-10T18:56:24.404Z,42.14
2023-04-10T18:58:53.724Z,41.99
2023-04-10T19:01:23.704Z,42.02
2023-04-10T19:03:58.035Z,42.03
2023-04-10T19:08:56.487Z,42.12
2023-04-10T19:11:29.581Z,42.30
2023-04-10T19:14:06.802Z,42.39
2023-04-10T19:16:36.917Z,42.49
2023-04-10T19:19:06.906Z,42.64
2023-04-10T19:21:42.677Z,42.64
2023-04-10T19:24:14.658Z,42.61
2023-04-10T19:26:44.873Z,42.60
2023-04-10T19:29:14.789Z,42.54
2023-04-10T19:31:52.957Z,42.47
2023-04-10T19:34:23.474Z,42.47
2023-04-10T19:36:57.997Z,42.49
2023-04-10T19:39:27.140Z,42.44
2023-04-10T19:41:58.434Z,42.39
2023-04-10T19:44:28.557Z,42.51
2023-04-10T19:47:05.119Z,42.53
2023-04-10T19:49:38.134Z,42.53
2023-04-10T19:52:12.762Z,42.53
2023-04-10T19:54:44.499Z,42.56
2023-04-10T19:57:14.515Z,42.59
2023-04-10T19:59:45.941Z,42.57
2023-04-10T20:02:17.420Z,42.49
2023-04-10T20:04:48.839Z,42.45
2023-04-10T20:07:26.059Z,42.46
2023-04-10T20:09:57.913Z,42.38
2023-04-10T20:12:27.704Z,42.30
2023-04-10T20:15:05.403Z,42.39
2023-04-10T20:17:35.842Z,42.39
2023-04-10T20:20:06.155Z,42.28
2023-04-10T20:22:40.394Z,42.30
2023-04-10T20:25:09.961Z,42.31
2023-04-10T20:27:39.483Z,42.33
2023-04-10T20:30:14.951Z,42.26
2023-04-10T20:32:48.365Z,42.14
2023-04-10T20:35:21.952Z,42.04
2023-04-10T20:37:52.103Z,41.94
2023-04-10T20:40:21.624Z,41.88
2023-04-10T20:42:51.219Z,41.78
2023-04-10T20:45:19.943Z,41.69
2023-04-10T20:47:50.075Z,41.61
2023-04-10T20:50:19.996Z,41.58
2023-04-10T20:52:53.283Z,41.54
2023-04-10T20:55:24.324Z,41.56
2023-04-10T20:57:55.000Z,41.54
2023-04-10T21:00:31.740Z,41.43
2023-04-10T21:03:01.835Z,41.32
2023-04-10T21:05:31.704Z,41.34
2023-04-10T21:08:01.474Z,41.30
2023-04-10T21:10:32.155Z,41.10
2023-04-10T21:13:04.213Z,41.03
2023-04-10T21:15:40.337Z,41.02
2023-04-10T21:18:11.788Z,41.02
2023-04-10T21:20:43.985Z,41.00
2023-04-10T21:23:14.319Z,41.00
2023-04-10T21:25:50.537Z,40.99
2023-04-10T21:28:22.347Z,41.09
2023-04-10T21:30:51.590Z,41.21
2023-04-10T21:33:24.296Z,41.35
2023-04-10T21:35:53.138Z,41.37
2023-04-10T21:38:24.707Z,41.27
2023-04-10T21:40:53.797Z,41.23
2023-04-10T21:43:30.891Z,41.21
2023-04-10T21:46:08.902Z,41.19
2023-04-10T21:48:39.566Z,41.06
2023-04-10T21:51:10.136Z,41.11
2023-04-10T21:53:40.268Z,41.10
2023-04-10T21:56:09.439Z,41.11
2023-04-10T21:58:40.031Z,40.99
2023-04-10T22:01:08.871Z,40.88
2023-04-10T22:03:39.159Z,40.89
2023-04-10T22:06:12.218Z,40.96
2023-04-10T22:08:43.907Z,40.96
2023-04-10T22:11:13.750Z,40.99
2023-04-10T22:13:45.355Z,40.98
2023-04-10T22:16:14.525Z,40.93
2023-04-10T22:18:48.581Z,40.86
2023-04-10T22:21:17.947Z,40.86
2023-04-10T22:23:50.011Z,40.72
2023-04-10T22:26:21.393Z,40.55
2023-04-10T22:28:51.472Z,40.47
2023-04-10T22:31:20.599Z,40.52
2023-04-10T22:33:50.853Z,40.48
2023-04-10T22:36:23.177Z,40.21
2023-04-10T22:38:54.237Z,40.20
2023-04-10T22:41:23.299Z,40.31
2023-04-10T22:43:52.034Z,40.29
2023-04-10T22:46:23.615Z,40.10
2023-04-10T22:48:52.457Z,39.85
2023-04-10T22:51:22.681Z,39.69
2023-04-10T22:53:52.987Z,39.62
2023-04-10T22:56:29.979Z,39.58
2023-04-10T22:59:02.345Z,39.70
2023-04-10T23:01:32.828Z,39.75
2023-04-10T23:04:02.104Z,39.67
2023-04-10T23:06:34.015Z,39.52
2023-04-10T23:09:04.090Z,39.57
2023-04-10T23:11:39.394Z,39.61
2023-04-10T23:14:09.177Z,39.57
2023-04-10T23:16:40.128Z,39.61
2023-04-10T23:19:09.200Z,39.78
2023-04-10T23:21:39.558Z,39.94
2023-04-10T23:24:11.456Z,40.11
2023-04-10T23:26:43.075Z,40.18
2023-04-10T23:29:13.173Z,40.12
2023-04-10T23:31:42.382Z,40.06
2023-04-10T23:34:13.145Z,40.00
2023-04-10T23:36:43.855Z,40.10
2023-04-10T23:39:14.216Z,40.17
2023-04-10T23:41:48.335Z,40.15
2023-04-10T23:44:17.186Z,40.14
2023-04-10T23:46:47.767Z,40.19
2023-04-10T23:49:18.439Z,40.10
2023-04-10T23:51:47.608Z,39.93
2023-04-10T23:54:18.741Z,39.83
2023-04-10T23:56:52.235Z,39.70
2023-04-10T23:59:22.304Z,39.57
